Terminal Aerodrome Forecast
Issued by NWS Mt. Holly, NJ

Home | Current Version | Previous Version | Text Only | Print | Product List | Glossary On
Versions: 1 2 3 4 5 6 7 8 9 10 11 12 13 14 15 16 17 18 19 20 21 22
000
FTUS41 KPHI 280500
TAFRDG
TAF
KRDG 280525Z 2806/2906 29004KT P6SM SCT035 BKN080
      TEMPO 2806/2810 -SHSN OVC035
     FM281100 29008KT P6SM SCT040 SCT080
     FM281400 30010G20KT P6SM SCT045
     FM282200 30004KT P6SM BKN200
     FM290300 VRB03KT P6SM BKN080=

USA.gov is the U.S. government's official web portal to all federal, state and local government web resources and services.